sensor_id;sensor_type;location;lat;lon;timestamp;temperature;humidity
5023;DHT22;2530;47.990;7.866;2023-08-30T00:02:09;12.90;1.00
5023;DHT22;2530;47.990;7.866;2023-08-30T00:04:35;12.90;1.00
5023;DHT22;2530;47.990;7.866;2023-08-30T00:07:00;12.90;1.00
5023;DHT22;2530;47.990;7.866;2023-08-30T00:09:26;12.90;1.00
5023;DHT22;2530;47.990;7.866;2023-08-30T00:11:51;12.80;1.00
5023;DHT22;2530;47.990;7.866;2023-08-30T00:14:17;12.80;1.00
5023;DHT22;2530;47.990;7.866;2023-08-30T00:16:42;12.80;1.00
5023;DHT22;2530;47.990;7.866;2023-08-30T00:19:08;12.80;1.00
5023;DHT22;2530;47.990;7.866;2023-08-30T00:21:34;12.70;1.00
5023;DHT22;2530;47.990;7.866;2023-08-30T00:23:59;12.70;1.00
5023;DHT22;2530;47.990;7.866;2023-08-30T00:26:25;12.70;1.00
5023;DHT22;2530;47.990;7.866;2023-08-30T00:28:51;12.60;1.00
5023;DHT22;2530;47.990;7.866;2023-08-30T00:31:16;12.60;1.00
5023;DHT22;2530;47.990;7.866;2023-08-30T00:33:42;12.50;1.00
5023;DHT22;2530;47.990;7.866;2023-08-30T00:36:07;12.50;1.00
5023;DHT22;2530;47.990;7.866;2023-08-30T00:38:33;12.40;1.00
5023;DHT22;2530;47.990;7.866;2023-08-30T00:40:59;12.50;1.00
5023;DHT22;2530;47.990;7.866;2023-08-30T00:43:24;12.40;1.00
5023;DHT22;2530;47.990;7.866;2023-08-30T00:45:50;12.40;1.00
5023;DHT22;2530;47.990;7.866;2023-08-30T00:48:17;12.40;1.00
5023;DHT22;2530;47.990;7.866;2023-08-30T00:50:45;12.30;1.00
5023;DHT22;2530;47.990;7.866;2023-08-30T00:53:11;12.30;1.00
5023;DHT22;2530;47.990;7.866;2023-08-30T00:55:37;12.30;1.00
5023;DHT22;2530;47.990;7.866;2023-08-30T00:58:03;12.30;1.00
5023;DHT22;2530;47.990;7.866;2023-08-30T01:00:30;12.30;1.00
5023;DHT22;2530;47.990;7.866;2023-08-30T01:02:56;12.30;1.00
5023;DHT22;2530;47.990;7.866;2023-08-30T01:05:22;12.30;1.00
5023;DHT22;2530;47.990;7.866;2023-08-30T01:07:51;12.30;1.00
5023;DHT22;2530;47.990;7.866;2023-08-30T01:10:18;12.30;1.00
5023;DHT22;2530;47.990;7.866;2023-08-30T01:12:49;12.20;1.00
5023;DHT22;2530;47.990;7.866;2023-08-30T01:15:19;12.20;1.00
5023;DHT22;2530;47.990;7.866;2023-08-30T01:17:49;12.30;1.00
5023;DHT22;2530;47.990;7.866;2023-08-30T01:20:17;12.30;1.00
5023;DHT22;2530;47.990;7.866;2023-08-30T01:23:06;12.30;1.00
5023;DHT22;2530;47.990;7.866;2023-08-30T01:28:26;12.20;1.00
5023;DHT22;2530;47.990;7.866;2023-08-30T01:30:54;12.20;1.00
5023;DHT22;2530;47.990;7.866;2023-08-30T01:33:20;11.80;1.00
5023;DHT22;2530;47.990;7.866;2023-08-30T01:35:47;12.00;1.00
5023;DHT22;2530;47.990;7.866;2023-08-30T01:38:14;12.10;1.00
5023;DHT22;2530;47.990;7.866;2023-08-30T01:40:42;12.10;1.00
5023;DHT22;2530;47.990;7.866;2023-08-30T01:43:09;12.10;1.00
5023;DHT22;2530;47.990;7.866;2023-08-30T01:45:39;12.10;1.00
5023;DHT22;2530;47.990;7.866;2023-08-30T01:48:07;12.00;1.00
5023;DHT22;2530;47.990;7.866;2023-08-30T01:50:34;11.90;1.00
5023;DHT22;2530;47.990;7.866;2023-08-30T01:53:02;12.10;1.00
5023;DHT22;2530;47.990;7.866;2023-08-30T01:55:28;11.90;1.00
5023;DHT22;2530;47.990;7.866;2023-08-30T01:57:54;11.90;1.00
5023;DHT22;2530;47.990;7.866;2023-08-30T02:00:20;12.00;1.00
5023;DHT22;2530;47.990;7.866;2023-08-30T02:02:47;11.90;1.00
5023;DHT22;2530;47.990;7.866;2023-08-30T02:05:13;11.90;1.00
5023;DHT22;2530;47.990;7.866;2023-08-30T02:08:04;11.90;1.00
5023;DHT22;2530;47.990;7.866;2023-08-30T02:10:34;11.90;1.00
5023;DHT22;2530;47.990;7.866;2023-08-30T02:13:02;11.70;1.00
5023;DHT22;2530;47.990;7.866;2023-08-30T02:15:30;11.90;1.00
5023;DHT22;2530;47.990;7.866;2023-08-30T02:17:57;11.80;1.00
5023;DHT22;2530;47.990;7.866;2023-08-30T02:20:23;11.70;1.00
5023;DHT22;2530;47.990;7.866;2023-08-30T02:22:49;11.80;1.00
5023;DHT22;2530;47.990;7.866;2023-08-30T02:25:15;11.90;1.00
5023;DHT22;2530;47.990;7.866;2023-08-30T02:27:40;11.60;1.00
5023;DHT22;2530;47.990;7.866;2023-08-30T02:30:07;11.70;1.00
5023;DHT22;2530;47.990;7.866;2023-08-30T02:32:33;11.70;1.00
5023;DHT22;2530;47.990;7.866;2023-08-30T02:34:59;11.80;1.00
5023;DHT22;2530;47.990;7.866;2023-08-30T02:37:24;11.80;1.00
5023;DHT22;2530;47.990;7.866;2023-08-30T02:39:50;11.70;1.00
5023;DHT22;2530;47.990;7.866;2023-08-30T02:42:16;11.80;1.00
5023;DHT22;2530;47.990;7.866;2023-08-30T02:44:41;11.50;1.00
5023;DHT22;2530;47.990;7.866;2023-08-30T02:47:07;11.60;1.00
5023;DHT22;2530;47.990;7.866;2023-08-30T02:49:33;11.70;1.00
5023;DHT22;2530;47.990;7.866;2023-08-30T02:51:58;11.70;1.00
5023;DHT22;2530;47.990;7.866;2023-08-30T02:54:24;11.60;1.00
5023;DHT22;2530;47.990;7.866;2023-08-30T02:56:49;11.50;1.00
5023;DHT22;2530;47.990;7.866;2023-08-30T02:59:15;11.70;1.00
5023;DHT22;2530;47.990;7.866;2023-08-30T03:01:40;11.50;1.00
5023;DHT22;2530;47.990;7.866;2023-08-30T03:04:07;11.60;1.00
5023;DHT22;2530;47.990;7.866;2023-08-30T03:06:33;11.40;1.00
5023;DHT22;2530;47.990;7.866;2023-08-30T03:08:59;11.50;1.00
5023;DHT22;2530;47.990;7.866;2023-08-30T03:11:25;11.40;1.00
5023;DHT22;2530;47.990;7.866;2023-08-30T03:13:50;11.50;1.00
5023;DHT22;2530;47.990;7.866;2023-08-30T03:16:16;11.60;1.00
5023;DHT22;2530;47.990;7.866;2023-08-30T03:18:43;11.40;1.00
5023;DHT22;2530;47.990;7.866;2023-08-30T03:21:09;11.40;1.00
5023;DHT22;2530;47.990;7.866;2023-08-30T03:23:35;11.50;1.00
5023;DHT22;2530;47.990;7.866;2023-08-30T03:26:12;11.50;1.00
5023;DHT22;2530;47.990;7.866;2023-08-30T03:28:39;11.50;1.00
5023;DHT22;2530;47.990;7.866;2023-08-30T03:31:21;11.40;1.00
5023;DHT22;2530;47.990;7.866;2023-08-30T03:33:47;11.40;1.00
5023;DHT22;2530;47.990;7.866;2023-08-30T03:36:17;11.50;1.00
5023;DHT22;2530;47.990;7.866;2023-08-30T03:38:44;11.50;1.00
5023;DHT22;2530;47.990;7.866;2023-08-30T03:41:10;11.30;1.00
5023;DHT22;2530;47.990;7.866;2023-08-30T03:43:36;11.30;1.00
5023;DHT22;2530;47.990;7.866;2023-08-30T03:46:02;11.30;1.00
5023;DHT22;2530;47.990;7.866;2023-08-30T03:48:31;10.40;1.00
5023;DHT22;2530;47.990;7.866;2023-08-30T03:50:57;11.30;1.00
5023;DHT22;2530;47.990;7.866;2023-08-30T03:53:23;12.00;1.00
5023;DHT22;2530;47.990;7.866;2023-08-30T03:55:49;10.70;1.00
5023;DHT22;2530;47.990;7.866;2023-08-30T03:58:15;11.30;1.00
5023;DHT22;2530;47.990;7.866;2023-08-30T04:00:41;11.30;1.00
5023;DHT22;2530;47.990;7.866;2023-08-30T04:03:08;11.30;1.00
5023;DHT22;2530;47.990;7.866;2023-08-30T04:05:37;11.30;1.00
5023;DHT22;2530;47.990;7.866;2023-08-30T04:08:03;11.30;1.00
5023;DHT22;2530;47.990;7.866;2023-08-30T04:10:29;11.20;1.00
5023;DHT22;2530;47.990;7.866;2023-08-30T04:12:59;13.40;1.00
5023;DHT22;2530;47.990;7.866;2023-08-30T04:15:24;11.10;1.00
5023;DHT22;2530;47.990;7.866;2023-08-30T04:17:50;11.10;1.00
5023;DHT22;2530;47.990;7.866;2023-08-30T04:20:15;11.20;1.00
5023;DHT22;2530;47.990;7.866;2023-08-30T04:22:41;11.30;1.00
5023;DHT22;2530;47.990;7.866;2023-08-30T04:25:07;11.10;1.00
5023;DHT22;2530;47.990;7.866;2023-08-30T04:27:34;11.30;1.00
5023;DHT22;2530;47.990;7.866;2023-08-30T04:30:00;11.10;1.00
5023;DHT22;2530;47.990;7.866;2023-08-30T04:32:25;11.20;1.00
5023;DHT22;2530;47.990;7.866;2023-08-30T04:34:51;11.20;1.00
5023;DHT22;2530;47.990;7.866;2023-08-30T04:37:16;11.40;1.00
5023;DHT22;2530;47.990;7.866;2023-08-30T04:39:42;11.20;1.00
5023;DHT22;2530;47.990;7.866;2023-08-30T04:42:07;11.50;1.00
5023;DHT22;2530;47.990;7.866;2023-08-30T04:44:33;11.40;1.00
5023;DHT22;2530;47.990;7.866;2023-08-30T04:46:59;11.30;1.00
5023;DHT22;2530;47.990;7.866;2023-08-30T04:49:24;11.60;1.00
5023;DHT22;2530;47.990;7.866;2023-08-30T04:51:50;11.30;1.00
5023;DHT22;2530;47.990;7.866;2023-08-30T04:54:16;11.10;1.00
5023;DHT22;2530;47.990;7.866;2023-08-30T04:56:42;10.90;1.00
5023;DHT22;2530;47.990;7.866;2023-08-30T04:59:07;11.30;1.00
5023;DHT22;2530;47.990;7.866;2023-08-30T05:01:33;11.30;1.00
5023;DHT22;2530;47.990;7.866;2023-08-30T05:03:58;11.10;1.00
5023;DHT22;2530;47.990;7.866;2023-08-30T05:06:24;11.20;1.00
5023;DHT22;2530;47.990;7.866;2023-08-30T05:08:50;11.30;1.00
5023;DHT22;2530;47.990;7.866;2023-08-30T05:11:15;11.40;1.00
5023;DHT22;2530;47.990;7.866;2023-08-30T05:13:41;11.50;1.00
5023;DHT22;2530;47.990;7.866;2023-08-30T05:16:07;11.40;1.00
5023;DHT22;2530;47.990;7.866;2023-08-30T05:18:32;11.40;1.00
5023;DHT22;2530;47.990;7.866;2023-08-30T05:20:58;11.40;1.00
5023;DHT22;2530;47.990;7.866;2023-08-30T05:23:23;10.60;1.00
5023;DHT22;2530;47.990;7.866;2023-08-30T05:25:49;11.40;1.00
5023;DHT22;2530;47.990;7.866;2023-08-30T05:28:14;11.60;1.00
5023;DHT22;2530;47.990;7.866;2023-08-30T05:30:42;11.60;1.00
5023;DHT22;2530;47.990;7.866;2023-08-30T05:33:09;11.80;1.00
5023;DHT22;2530;47.990;7.866;2023-08-30T05:35:34;11.80;1.00
5023;DHT22;2530;47.990;7.866;2023-08-30T05:38:00;11.80;1.00
5023;DHT22;2530;47.990;7.866;2023-08-30T05:40:26;11.70;1.00
5023;DHT22;2530;47.990;7.866;2023-08-30T05:42:51;11.60;1.00
5023;DHT22;2530;47.990;7.866;2023-08-30T05:45:17;11.90;1.00
5023;DHT22;2530;47.990;7.866;2023-08-30T05:47:42;11.70;1.00
5023;DHT22;2530;47.990;7.866;2023-08-30T05:50:08;11.90;1.00
5023;DHT22;2530;47.990;7.866;2023-08-30T05:52:34;12.00;1.00
5023;DHT22;2530;47.990;7.866;2023-08-30T05:54:59;12.00;1.00
5023;DHT22;2530;47.990;7.866;2023-08-30T05:57:25;12.10;1.00
5023;DHT22;2530;47.990;7.866;2023-08-30T05:59:52;12.20;1.00
5023;DHT22;2530;47.990;7.866;2023-08-30T06:02:17;12.20;1.00
5023;DHT22;2530;47.990;7.866;2023-08-30T06:04:43;12.30;1.00
5023;DHT22;2530;47.990;7.866;2023-08-30T06:07:08;12.40;1.00
5023;DHT22;2530;47.990;7.866;2023-08-30T06:09:34;12.50;1.00
5023;DHT22;2530;47.990;7.866;2023-08-30T06:12:00;12.60;1.00
5023;DHT22;2530;47.990;7.866;2023-08-30T06:14:26;12.60;1.00
5023;DHT22;2530;47.990;7.866;2023-08-30T06:16:52;12.60;1.00
5023;DHT22;2530;47.990;7.866;2023-08-30T06:19:17;12.60;1.00
5023;DHT22;2530;47.990;7.866;2023-08-30T06:21:43;12.60;1.00
5023;DHT22;2530;47.990;7.866;2023-08-30T06:24:09;12.20;1.00
5023;DHT22;2530;47.990;7.866;2023-08-30T06:26:34;12.80;1.00
5023;DHT22;2530;47.990;7.866;2023-08-30T06:29:00;12.80;1.00
5023;DHT22;2530;47.990;7.866;2023-08-30T06:31:25;12.90;1.00
5023;DHT22;2530;47.990;7.866;2023-08-30T06:33:51;12.90;1.00
5023;DHT22;2530;47.990;7.866;2023-08-30T06:36:17;12.90;1.00
5023;DHT22;2530;47.990;7.866;2023-08-30T06:38:43;13.00;1.00
5023;DHT22;2530;47.990;7.866;2023-08-30T06:41:09;13.00;1.00
5023;DHT22;2530;47.990;7.866;2023-08-30T06:43:34;13.00;1.00
5023;DHT22;2530;47.990;7.866;2023-08-30T06:46:00;13.00;1.00
5023;DHT22;2530;47.990;7.866;2023-08-30T06:48:26;13.40;1.00
5023;DHT22;2530;47.990;7.866;2023-08-30T06:50:51;13.10;1.00
5023;DHT22;2530;47.990;7.866;2023-08-30T06:53:17;13.10;1.00
5023;DHT22;2530;47.990;7.866;2023-08-30T06:55:42;13.20;1.00
5023;DHT22;2530;47.990;7.866;2023-08-30T06:58:08;13.30;1.00
5023;DHT22;2530;47.990;7.866;2023-08-30T07:00:33;13.30;1.00
5023;DHT22;2530;47.990;7.866;2023-08-30T07:02:59;13.70;1.00
5023;DHT22;2530;47.990;7.866;2023-08-30T07:05:25;13.40;1.00
5023;DHT22;2530;47.990;7.866;2023-08-30T07:07:50;12.70;1.00
5023;DHT22;2530;47.990;7.866;2023-08-30T07:10:16;13.60;1.00
5023;DHT22;2530;47.990;7.866;2023-08-30T07:12:41;13.60;1.00
5023;DHT22;2530;47.990;7.866;2023-08-30T07:15:07;13.70;1.00
5023;DHT22;2530;47.990;7.866;2023-08-30T07:17:33;13.70;1.00
5023;DHT22;2530;47.990;7.866;2023-08-30T07:19:59;13.80;1.00
5023;DHT22;2530;47.990;7.866;2023-08-30T07:22:24;13.90;1.00
5023;DHT22;2530;47.990;7.866;2023-08-30T07:24:50;13.90;1.00
5023;DHT22;2530;47.990;7.866;2023-08-30T07:27:16;14.00;1.00
5023;DHT22;2530;47.990;7.866;2023-08-30T07:29:42;14.10;1.00
5023;DHT22;2530;47.990;7.866;2023-08-30T07:32:09;14.20;1.00
5023;DHT22;2530;47.990;7.866;2023-08-30T07:34:34;14.30;1.00
5023;DHT22;2530;47.990;7.866;2023-08-30T07:37:00;14.40;1.00
5023;DHT22;2530;47.990;7.866;2023-08-30T07:39:26;14.50;1.00
5023;DHT22;2530;47.990;7.866;2023-08-30T07:41:52;14.50;1.00
5023;DHT22;2530;47.990;7.866;2023-08-30T07:44:17;14.50;1.00
5023;DHT22;2530;47.990;7.866;2023-08-30T07:46:45;14.70;1.00
5023;DHT22;2530;47.990;7.866;2023-08-30T07:49:10;14.80;1.00
5023;DHT22;2530;47.990;7.866;2023-08-30T07:51:36;14.80;1.00
5023;DHT22;2530;47.990;7.866;2023-08-30T07:54:01;15.00;1.00
5023;DHT22;2530;47.990;7.866;2023-08-30T07:56:27;14.60;1.00
5023;DHT22;2530;47.990;7.866;2023-08-30T07:58:54;15.40;1.00
5023;DHT22;2530;47.990;7.866;2023-08-30T08:01:20;15.30;1.00
5023;DHT22;2530;47.990;7.866;2023-08-30T08:03:45;15.40;1.00
5023;DHT22;2530;47.990;7.866;2023-08-30T08:06:11;15.50;1.00
5023;DHT22;2530;47.990;7.866;2023-08-30T08:08:36;16.20;1.00
5023;DHT22;2530;47.990;7.866;2023-08-30T08:11:02;15.70;1.00
5023;DHT22;2530;47.990;7.866;2023-08-30T08:13:28;15.70;1.00
5023;DHT22;2530;47.990;7.866;2023-08-30T08:15:56;15.80;1.00
5023;DHT22;2530;47.990;7.866;2023-08-30T08:18:22;15.80;1.00
5023;DHT22;2530;47.990;7.866;2023-08-30T08:20:47;15.80;1.00
5023;DHT22;2530;47.990;7.866;2023-08-30T08:23:13;15.90;1.00
5023;DHT22;2530;47.990;7.866;2023-08-30T08:25:38;16.10;1.00
5023;DHT22;2530;47.990;7.866;2023-08-30T08:28:04;16.10;1.00
5023;DHT22;2530;47.990;7.866;2023-08-30T08:30:30;16.20;1.00
5023;DHT22;2530;47.990;7.866;2023-08-30T08:32:55;16.20;1.00
5023;DHT22;2530;47.990;7.866;2023-08-30T08:35:21;16.30;1.00
5023;DHT22;2530;47.990;7.866;2023-08-30T08:37:47;16.30;1.00
5023;DHT22;2530;47.990;7.866;2023-08-30T08:40:12;16.30;1.00
5023;DHT22;2530;47.990;7.866;2023-08-30T08:42:38;16.20;1.00
5023;DHT22;2530;47.990;7.866;2023-08-30T08:45:04;16.30;1.00
5023;DHT22;2530;47.990;7.866;2023-08-30T08:47:30;16.40;1.00
5023;DHT22;2530;47.990;7.866;2023-08-30T08:49:57;16.40;1.00
5023;DHT22;2530;47.990;7.866;2023-08-30T08:52:26;16.50;1.00
5023;DHT22;2530;47.990;7.866;2023-08-30T08:54:52;16.60;1.00
5023;DHT22;2530;47.990;7.866;2023-08-30T08:57:18;15.80;1.00
5023;DHT22;2530;47.990;7.866;2023-08-30T08:59:44;16.70;1.00
5023;DHT22;2530;47.990;7.866;2023-08-30T09:02:13;16.90;1.00
5023;DHT22;2530;47.990;7.866;2023-08-30T09:04:39;16.80;1.00
5023;DHT22;2530;47.990;7.866;2023-08-30T09:07:05;16.90;1.00
5023;DHT22;2530;47.990;7.866;2023-08-30T09:09:31;16.90;1.00
5023;DHT22;2530;47.990;7.866;2023-08-30T09:11:56;16.90;1.00
5023;DHT22;2530;47.990;7.866;2023-08-30T09:14:22;17.20;1.00
5023;DHT22;2530;47.990;7.866;2023-08-30T09:16:59;16.50;1.00
5023;DHT22;2530;47.990;7.866;2023-08-30T09:19:29;17.30;1.00
5023;DHT22;2530;47.990;7.866;2023-08-30T09:21:59;17.40;1.00
5023;DHT22;2530;47.990;7.866;2023-08-30T09:24:25;17.90;1.00
5023;DHT22;2530;47.990;7.866;2023-08-30T09:26:54;17.40;1.00
5023;DHT22;2530;47.990;7.866;2023-08-30T09:29:21;17.50;1.00
5023;DHT22;2530;47.990;7.866;2023-08-30T09:31:51;17.40;1.00
5023;DHT22;2530;47.990;7.866;2023-08-30T09:34:22;17.40;1.00
5023;DHT22;2530;47.990;7.866;2023-08-30T09:36:49;17.30;1.00
5023;DHT22;2530;47.990;7.866;2023-08-30T09:39:15;16.10;1.00
5023;DHT22;2530;47.990;7.866;2023-08-30T09:41:45;17.40;1.00
5023;DHT22;2530;47.990;7.866;2023-08-30T09:44:19;17.40;1.00
5023;DHT22;2530;47.990;7.866;2023-08-30T09:46:53;17.40;1.00
5023;DHT22;2530;47.990;7.866;2023-08-30T09:49:24;17.40;1.00
5023;DHT22;2530;47.990;7.866;2023-08-30T09:51:51;17.40;1.00
5023;DHT22;2530;47.990;7.866;2023-08-30T09:54:22;17.60;1.00
5023;DHT22;2530;47.990;7.866;2023-08-30T09:56:48;17.70;1.00
5023;DHT22;2530;47.990;7.866;2023-08-30T09:59:18;17.70;1.00
5023;DHT22;2530;47.990;7.866;2023-08-30T10:01:46;17.60;1.00
5023;DHT22;2530;47.990;7.866;2023-08-30T10:04:13;17.60;1.00
5023;DHT22;2530;47.990;7.866;2023-08-30T10:06:40;17.70;1.00
5023;DHT22;2530;47.990;7.866;2023-08-30T10:09:07;17.90;1.00
5023;DHT22;2530;47.990;7.866;2023-08-30T10:11:38;18.00;1.00
5023;DHT22;2530;47.990;7.866;2023-08-30T10:14:07;18.00;1.00
5023;DHT22;2530;47.990;7.866;2023-08-30T10:16:44;18.00;1.00
5023;DHT22;2530;47.990;7.866;2023-08-30T10:19:24;18.20;1.00
5023;DHT22;2530;47.990;7.866;2023-08-30T10:24:22;18.50;1.00
5023;DHT22;2530;47.990;7.866;2023-08-30T10:26:50;18.40;1.00
5023;DHT22;2530;47.990;7.866;2023-08-30T10:29:16;18.50;1.00
5023;DHT22;2530;47.990;7.866;2023-08-30T10:31:42;18.30;1.00
5023;DHT22;2530;47.990;7.866;2023-08-30T10:34:16;18.20;1.00
5023;DHT22;2530;47.990;7.866;2023-08-30T10:36:43;18.60;1.00
5023;DHT22;2530;47.990;7.866;2023-08-30T10:39:13;18.60;1.00
5023;DHT22;2530;47.990;7.866;2023-08-30T10:41:54;18.40;1.00
5023;DHT22;2530;47.990;7.866;2023-08-30T10:44:22;18.50;1.00
5023;DHT22;2530;47.990;7.866;2023-08-30T10:46:53;18.60;1.00
5023;DHT22;2530;47.990;7.866;2023-08-30T10:49:20;18.60;1.00
5023;DHT22;2530;47.990;7.866;2023-08-30T10:51:54;18.60;1.00
5023;DHT22;2530;47.990;7.866;2023-08-30T10:54:20;18.70;1.00
5023;DHT22;2530;47.990;7.866;2023-08-30T10:59:20;18.40;1.00
5023;DHT22;2530;47.990;7.866;2023-08-30T11:01:47;18.70;1.00
5023;DHT22;2530;47.990;7.866;2023-08-30T11:04:15;18.70;1.00
5023;DHT22;2530;47.990;7.866;2023-08-30T11:06:43;19.70;1.00
5023;DHT22;2530;47.990;7.866;2023-08-30T11:09:10;19.40;1.00
5023;DHT22;2530;47.990;7.866;2023-08-30T11:11:37;19.70;1.00
5023;DHT22;2530;47.990;7.866;2023-08-30T11:14:06;20.90;1.00
5023;DHT22;2530;47.990;7.866;2023-08-30T11:16:31;19.30;1.00
5023;DHT22;2530;47.990;7.866;2023-08-30T11:18:58;18.90;1.00
5023;DHT22;2530;47.990;7.866;2023-08-30T11:21:23;18.90;1.00
5023;DHT22;2530;47.990;7.866;2023-08-30T11:23:49;19.00;1.00
5023;DHT22;2530;47.990;7.866;2023-08-30T11:26:15;18.80;1.00
5023;DHT22;2530;47.990;7.866;2023-08-30T11:28:42;18.90;1.00
5023;DHT22;2530;47.990;7.866;2023-08-30T11:31:26;19.00;1.00
5023;DHT22;2530;47.990;7.866;2023-08-30T11:33:57;19.10;1.00
5023;DHT22;2530;47.990;7.866;2023-08-30T11:36:26;19.40;1.00
5023;DHT22;2530;47.990;7.866;2023-08-30T11:38:53;19.30;1.00
5023;DHT22;2530;47.990;7.866;2023-08-30T11:41:22;19.20;1.00
5023;DHT22;2530;47.990;7.866;2023-08-30T11:43:48;19.10;1.00
5023;DHT22;2530;47.990;7.866;2023-08-30T11:46:15;19.30;1.00
5023;DHT22;2530;47.990;7.866;2023-08-30T11:48:42;19.30;1.00
5023;DHT22;2530;47.990;7.866;2023-08-30T11:51:08;19.10;1.00
5023;DHT22;2530;47.990;7.866;2023-08-30T11:53:34;19.10;1.00
5023;DHT22;2530;47.990;7.866;2023-08-30T11:56:01;19.00;1.00
5023;DHT22;2530;47.990;7.866;2023-08-30T11:58:26;19.00;1.00
5023;DHT22;2530;47.990;7.866;2023-08-30T12:00:53;19.10;1.00
5023;DHT22;2530;47.990;7.866;2023-08-30T12:03:22;19.80;1.00
5023;DHT22;2530;47.990;7.866;2023-08-30T12:05:49;20.60;1.00
5023;DHT22;2530;47.990;7.866;2023-08-30T12:08:28;20.60;1.00
5023;DHT22;2530;47.990;7.866;2023-08-30T12:10:55;21.40;1.00
5023;DHT22;2530;47.990;7.866;2023-08-30T12:13:32;21.10;1.00
5023;DHT22;2530;47.990;7.866;2023-08-30T12:15:59;20.50;1.00
5023;DHT22;2530;47.990;7.866;2023-08-30T12:18:26;20.70;1.00
5023;DHT22;2530;47.990;7.866;2023-08-30T12:21:03;20.70;1.00
5023;DHT22;2530;47.990;7.866;2023-08-30T12:23:30;21.00;1.00
5023;DHT22;2530;47.990;7.866;2023-08-30T12:26:07;21.60;1.00
5023;DHT22;2530;47.990;7.866;2023-08-30T12:28:40;22.00;1.00
5023;DHT22;2530;47.990;7.866;2023-08-30T12:31:06;22.20;1.00
5023;DHT22;2530;47.990;7.866;2023-08-30T12:33:33;22.40;1.00
5023;DHT22;2530;47.990;7.866;2023-08-30T12:36:00;23.10;1.00
5023;DHT22;2530;47.990;7.866;2023-08-30T12:38:25;22.50;1.00
5023;DHT22;2530;47.990;7.866;2023-08-30T12:40:53;21.10;1.00
5023;DHT22;2530;47.990;7.866;2023-08-30T12:43:19;21.60;1.00
5023;DHT22;2530;47.990;7.866;2023-08-30T12:45:49;21.90;1.00
5023;DHT22;2530;47.990;7.866;2023-08-30T12:48:16;21.30;1.00
5023;DHT22;2530;47.990;7.866;2023-08-30T12:50:44;21.30;1.00
5023;DHT22;2530;47.990;7.866;2023-08-30T12:53:09;22.10;1.00
5023;DHT22;2530;47.990;7.866;2023-08-30T12:55:35;21.50;1.00
5023;DHT22;2530;47.990;7.866;2023-08-30T12:58:02;21.80;1.00
5023;DHT22;2530;47.990;7.866;2023-08-30T13:00:30;21.70;1.00
5023;DHT22;2530;47.990;7.866;2023-08-30T13:02:56;21.10;1.00
5023;DHT22;2530;47.990;7.866;2023-08-30T13:05:21;21.40;1.00
5023;DHT22;2530;47.990;7.866;2023-08-30T13:07:47;21.00;1.00
5023;DHT22;2530;47.990;7.866;2023-08-30T13:10:14;19.70;1.00
5023;DHT22;2530;47.990;7.866;2023-08-30T13:12:39;20.80;1.00
5023;DHT22;2530;47.990;7.866;2023-08-30T13:15:05;20.60;1.00
5023;DHT22;2530;47.990;7.866;2023-08-30T13:17:31;20.30;1.00
5023;DHT22;2530;47.990;7.866;2023-08-30T13:19:57;20.50;1.00
5023;DHT22;2530;47.990;7.866;2023-08-30T13:22:26;20.20;1.00
5023;DHT22;2530;47.990;7.866;2023-08-30T13:24:51;20.30;1.00
5023;DHT22;2530;47.990;7.866;2023-08-30T13:27:18;20.30;1.00
5023;DHT22;2530;47.990;7.866;2023-08-30T13:29:43;20.50;1.00
5023;DHT22;2530;47.990;7.866;2023-08-30T13:32:09;20.40;1.00
5023;DHT22;2530;47.990;7.866;2023-08-30T13:34:34;20.80;1.00
5023;DHT22;2530;47.990;7.866;2023-08-30T13:37:00;21.40;1.00
5023;DHT22;2530;47.990;7.866;2023-08-30T13:39:25;21.80;1.00
5023;DHT22;2530;47.990;7.866;2023-08-30T13:41:51;21.70;1.00
5023;DHT22;2530;47.990;7.866;2023-08-30T13:44:16;21.50;1.00
5023;DHT22;2530;47.990;7.866;2023-08-30T13:46:44;21.50;1.00
5023;DHT22;2530;47.990;7.866;2023-08-30T13:49:09;21.80;1.00
5023;DHT22;2530;47.990;7.866;2023-08-30T13:51:35;21.90;1.00
5023;DHT22;2530;47.990;7.866;2023-08-30T13:54:02;21.30;1.00
5023;DHT22;2530;47.990;7.866;2023-08-30T13:56:27;21.50;1.00
5023;DHT22;2530;47.990;7.866;2023-08-30T13:58:53;21.30;1.00
5023;DHT22;2530;47.990;7.866;2023-08-30T14:01:18;21.30;1.00
5023;DHT22;2530;47.990;7.866;2023-08-30T14:03:44;21.00;1.00
5023;DHT22;2530;47.990;7.866;2023-08-30T14:06:09;20.90;1.00
5023;DHT22;2530;47.990;7.866;2023-08-30T14:08:35;20.90;1.00
5023;DHT22;2530;47.990;7.866;2023-08-30T14:11:01;20.90;1.00
5023;DHT22;2530;47.990;7.866;2023-08-30T14:13:26;20.90;1.00
5023;DHT22;2530;47.990;7.866;2023-08-30T14:15:53;21.20;1.00
5023;DHT22;2530;47.990;7.866;2023-08-30T14:18:19;20.80;1.00
5023;DHT22;2530;47.990;7.866;2023-08-30T14:20:45;20.60;1.00
5023;DHT22;2530;47.990;7.866;2023-08-30T14:23:10;20.40;1.00
5023;DHT22;2530;47.990;7.866;2023-08-30T14:25:36;20.30;1.00
5023;DHT22;2530;47.990;7.866;2023-08-30T14:28:02;19.60;1.00
5023;DHT22;2530;47.990;7.866;2023-08-30T14:30:29;20.10;1.00
5023;DHT22;2530;47.990;7.866;2023-08-30T14:32:54;20.00;1.00
5023;DHT22;2530;47.990;7.866;2023-08-30T14:35:20;19.90;1.00
5023;DHT22;2530;47.990;7.866;2023-08-30T14:37:50;19.90;1.00
5023;DHT22;2530;47.990;7.866;2023-08-30T14:40:15;20.00;1.00
5023;DHT22;2530;47.990;7.866;2023-08-30T14:42:41;19.90;1.00
5023;DHT22;2530;47.990;7.866;2023-08-30T14:45:07;19.90;1.00
5023;DHT22;2530;47.990;7.866;2023-08-30T14:47:33;19.90;1.00
5023;DHT22;2530;47.990;7.866;2023-08-30T14:49:59;19.90;1.00
5023;DHT22;2530;47.990;7.866;2023-08-30T14:52:28;20.10;1.00
5023;DHT22;2530;47.990;7.866;2023-08-30T14:54:53;20.00;1.00
5023;DHT22;2530;47.990;7.866;2023-08-30T14:57:19;20.00;1.00
5023;DHT22;2530;47.990;7.866;2023-08-30T14:59:44;19.90;1.00
5023;DHT22;2530;47.990;7.866;2023-08-30T15:02:10;20.00;1.00
5023;DHT22;2530;47.990;7.866;2023-08-30T15:04:35;20.10;1.00
5023;DHT22;2530;47.990;7.866;2023-08-30T15:07:01;20.10;1.00
5023;DHT22;2530;47.990;7.866;2023-08-30T15:09:26;20.10;1.00
5023;DHT22;2530;47.990;7.866;2023-08-30T15:11:54;20.00;1.00
5023;DHT22;2530;47.990;7.866;2023-08-30T15:14:20;20.10;1.00
5023;DHT22;2530;47.990;7.866;2023-08-30T15:16:45;19.90;1.00
5023;DHT22;2530;47.990;7.866;2023-08-30T15:19:11;20.00;1.00
5023;DHT22;2530;47.990;7.866;2023-08-30T15:21:38;20.10;1.00
5023;DHT22;2530;47.990;7.866;2023-08-30T15:24:04;20.30;1.00
5023;DHT22;2530;47.990;7.866;2023-08-30T15:26:30;20.20;1.00
5023;DHT22;2530;47.990;7.866;2023-08-30T15:28:55;21.10;1.00
5023;DHT22;2530;47.990;7.866;2023-08-30T15:31:21;20.30;1.00
5023;DHT22;2530;47.990;7.866;2023-08-30T15:33:47;19.60;1.00
5023;DHT22;2530;47.990;7.866;2023-08-30T15:36:13;20.30;1.00
5023;DHT22;2530;47.990;7.866;2023-08-30T15:38:39;20.30;1.00
5023;DHT22;2530;47.990;7.866;2023-08-30T15:41:11;19.60;1.00
5023;DHT22;2530;47.990;7.866;2023-08-30T15:43:41;20.40;1.00
5023;DHT22;2530;47.990;7.866;2023-08-30T15:46:07;20.70;1.00
5023;DHT22;2530;47.990;7.866;2023-08-30T15:48:33;20.90;1.00
5023;DHT22;2530;47.990;7.866;2023-08-30T15:50:59;20.80;1.00
5023;DHT22;2530;47.990;7.866;2023-08-30T15:53:24;21.30;1.00
5023;DHT22;2530;47.990;7.866;2023-08-30T15:55:50;22.70;1.00
5023;DHT22;2530;47.990;7.866;2023-08-30T15:58:16;21.60;1.00
5023;DHT22;2530;47.990;7.866;2023-08-30T16:00:42;21.70;1.00
5023;DHT22;2530;47.990;7.866;2023-08-30T16:03:10;20.90;1.00
5023;DHT22;2530;47.990;7.866;2023-08-30T16:05:36;20.60;1.00
5023;DHT22;2530;47.990;7.866;2023-08-30T16:08:03;21.70;1.00
5023;DHT22;2530;47.990;7.866;2023-08-30T16:10:29;21.70;1.00
5023;DHT22;2530;47.990;7.866;2023-08-30T16:12:54;21.50;1.00
5023;DHT22;2530;47.990;7.866;2023-08-30T16:15:20;21.50;1.00
5023;DHT22;2530;47.990;7.866;2023-08-30T16:17:49;21.60;1.00
5023;DHT22;2530;47.990;7.866;2023-08-30T16:20:14;21.70;1.00
5023;DHT22;2530;47.990;7.866;2023-08-30T16:22:40;21.40;1.00